Accueil
METAR-TAF:

METAR-TAF

Aéroports :

Aéroport du Frioul-Vénétie julienne

Trieste / Ronchi dei Legionari, Italie

latitude: 45-49N, longitude: 013-29E, altitude: 12 m

Observation

Le bulletin a été fait il y a 15 minutes, à 09:50 UTC
Vent 4 kt de nord/nord-est, variant entre nord/nord-ouest et est
Température 21°C
Humidité 38%
Pression 1016 hPa
Visibilité 10 km ou plus

METAR: LIPQ 300950Z AUTO 03004KT 330V100 9999 BKN100/// 21/06 Q1016

Heure: 12:05 (10:05 UTC)

Prévision

Le bulletin a été fait il y a 3 heures et 13 minutes, à 06:52 UTC
Prévision valable du 30 à 07 UTC au 31 à 06 UTC
Vent 5 kt de direction variable
Visibilité 10 km ou plus
Quelques nuages à une hauteur de 6000 ft
Evoluant progressivement
du 30 à 18 UTC au 30 à 20 UTC
Vent 12 kt de est

TAF: LIPQ 300652Z 3007/3106 VRB05KT 9999 FEW060 BECMG 3018/3020 08012KT

Observations et prévisions météorologiques de plus de 4000 aéroports (messages METAR et TAF).

Les stations disponibles sont représentées par des disques jaunes et rouges sur la carte.

Passer la souris dessus pour voir le nom de la station.

Cliquer dessus pour voir les observations et prévisions météorologiques.

Pour changer de carte: cliquez sur les boutons verts avec une croix noire pour zoomer, sur le bouton vert avec un tiret pour effectuer un zoom arrière, ou sur les flèches vertes pour les cartes adjacentes.


METAR-TAF: